sensor_id;sensor_type;location;lat;lon;timestamp;P1;durP1;ratioP1;P2;durP2;ratioP2
25169;SDS011;13129;48.012;10.352;2023-04-24T03:34:34;1.30;;;1.20;;
25169;SDS011;13129;48.012;10.352;2023-04-24T03:37:00;1.00;;;1.00;;
25169;SDS011;13129;48.012;10.352;2023-04-24T03:39:25;2.53;;;0.80;;
25169;SDS011;13129;48.012;10.352;2023-04-24T03:41:52;0.90;;;0.90;;
25169;SDS011;13129;48.012;10.352;2023-04-24T03:46:45;1.45;;;1.35;;
25169;SDS011;13129;48.012;10.352;2023-04-24T03:49:10;0.95;;;0.95;;
25169;SDS011;13129;48.012;10.352;2023-04-24T03:51:36;1.55;;;0.90;;
25169;SDS011;13129;48.012;10.352;2023-04-24T03:54:02;0.80;;;0.80;;
25169;SDS011;13129;48.012;10.352;2023-04-24T03:56:28;1.15;;;1.00;;
25169;SDS011;13129;48.012;10.352;2023-04-24T03:58:53;1.30;;;1.00;;
25169;SDS011;13129;48.012;10.352;2023-04-24T04:01:19;1.08;;;1.00;;
25169;SDS011;13129;48.012;10.352;2023-04-24T04:03:45;1.25;;;1.15;;
25169;SDS011;13129;48.012;10.352;2023-04-24T04:06:11;1.23;;;1.13;;
25169;SDS011;13129;48.012;10.352;2023-04-24T04:08:38;0.90;;;0.90;;
25169;SDS011;13129;48.012;10.352;2023-04-24T04:11:03;1.50;;;1.10;;
25169;SDS011;13129;48.012;10.352;2023-04-24T04:13:29;0.82;;;0.82;;
25169;SDS011;13129;48.012;10.352;2023-04-24T04:15:55;0.80;;;0.80;;
25169;SDS011;13129;48.012;10.352;2023-04-24T04:18:20;2.55;;;1.27;;
25169;SDS011;13129;48.012;10.352;2023-04-24T04:20:46;1.10;;;1.00;;
25169;SDS011;13129;48.012;10.352;2023-04-24T04:23:11;0.82;;;0.82;;
25169;SDS011;13129;48.012;10.352;2023-04-24T04:25:37;0.98;;;0.98;;
25169;SDS011;13129;48.012;10.352;2023-04-24T04:28:02;1.30;;;1.17;;
25169;SDS011;13129;48.012;10.352;2023-04-24T04:30:28;1.75;;;1.17;;
25169;SDS011;13129;48.012;10.352;2023-04-24T04:32:57;0.88;;;0.88;;
25169;SDS011;13129;48.012;10.352;2023-04-24T04:35:24;1.80;;;1.20;;
25169;SDS011;13129;48.012;10.352;2023-04-24T04:37:51;1.27;;;1.17;;
25169;SDS011;13129;48.012;10.352;2023-04-24T04:40:16;1.40;;;1.10;;
25169;SDS011;13129;48.012;10.352;2023-04-24T04:42:42;1.05;;;1.05;;
25169;SDS011;13129;48.012;10.352;2023-04-24T04:45:11;0.75;;;0.75;;
25169;SDS011;13129;48.012;10.352;2023-04-24T04:47:36;1.50;;;1.25;;
25169;SDS011;13129;48.012;10.352;2023-04-24T04:50:02;1.42;;;0.85;;
25169;SDS011;13129;48.012;10.352;2023-04-24T04:52:30;0.88;;;0.88;;
25169;SDS011;13129;48.012;10.352;2023-04-24T04:54:56;1.00;;;1.00;;
25169;SDS011;13129;48.012;10.352;2023-04-24T04:57:22;0.70;;;0.70;;
25169;SDS011;13129;48.012;10.352;2023-04-24T04:59:48;0.77;;;0.77;;
25169;SDS011;13129;48.012;10.352;2023-04-24T05:02:13;0.70;;;0.70;;
25169;SDS011;13129;48.012;10.352;2023-04-24T05:04:39;3.38;;;1.05;;
25169;SDS011;13129;48.012;10.352;2023-04-24T05:07:05;2.55;;;1.40;;
25169;SDS011;13129;48.012;10.352;2023-04-24T05:09:31;1.13;;;0.90;;
25169;SDS011;13129;48.012;10.352;2023-04-24T05:11:56;0.77;;;0.70;;
25169;SDS011;13129;48.012;10.352;2023-04-24T05:14:22;0.90;;;0.90;;
25169;SDS011;13129;48.012;10.352;2023-04-24T05:16:48;0.55;;;0.55;;
25169;SDS011;13129;48.012;10.352;2023-04-24T05:19:13;0.95;;;0.90;;
25169;SDS011;13129;48.012;10.352;2023-04-24T05:21:40;0.80;;;0.80;;
25169;SDS011;13129;48.012;10.352;2023-04-24T05:24:06;0.85;;;0.70;;
25169;SDS011;13129;48.012;10.352;2023-04-24T05:26:31;0.75;;;0.75;;
25169;SDS011;13129;48.012;10.352;2023-04-24T05:28:57;0.70;;;0.70;;
25169;SDS011;13129;48.012;10.352;2023-04-24T05:31:23;0.93;;;0.90;;
25169;SDS011;13129;48.012;10.352;2023-04-24T05:33:48;0.77;;;0.77;;
25169;SDS011;13129;48.012;10.352;2023-04-24T05:36:14;0.60;;;0.60;;
25169;SDS011;13129;48.012;10.352;2023-04-24T05:38:40;1.30;;;0.98;;
25169;SDS011;13129;48.012;10.352;2023-04-24T05:41:06;2.08;;;0.77;;
25169;SDS011;13129;48.012;10.352;2023-04-24T05:43:31;0.57;;;0.57;;
25169;SDS011;13129;48.012;10.352;2023-04-24T05:45:57;0.77;;;0.77;;
25169;SDS011;13129;48.012;10.352;2023-04-24T05:48:22;1.02;;;0.60;;
25169;SDS011;13129;48.012;10.352;2023-04-24T05:50:48;0.70;;;0.70;;
25169;SDS011;13129;48.012;10.352;2023-04-24T05:53:14;1.17;;;0.77;;
25169;SDS011;13129;48.012;10.352;2023-04-24T05:55:40;0.77;;;0.77;;
25169;SDS011;13129;48.012;10.352;2023-04-24T05:58:06;1.27;;;0.60;;
25169;SDS011;13129;48.012;10.352;2023-04-24T06:00:31;0.82;;;0.70;;
25169;SDS011;13129;48.012;10.352;2023-04-24T06:02:58;1.35;;;0.80;;
25169;SDS011;13129;48.012;10.352;2023-04-24T06:05:25;0.85;;;0.85;;
25169;SDS011;13129;48.012;10.352;2023-04-24T06:07:50;1.17;;;0.73;;
25169;SDS011;13129;48.012;10.352;2023-04-24T06:10:16;0.65;;;0.65;;
25169;SDS011;13129;48.012;10.352;2023-04-24T06:12:42;0.85;;;0.60;;
25169;SDS011;13129;48.012;10.352;2023-04-24T06:15:08;0.80;;;0.80;;
25169;SDS011;13129;48.012;10.352;2023-04-24T06:17:34;1.00;;;0.80;;
25169;SDS011;13129;48.012;10.352;2023-04-24T06:19:59;1.00;;;0.90;;
25169;SDS011;13129;48.012;10.352;2023-04-24T06:22:25;0.70;;;0.70;;
25169;SDS011;13129;48.012;10.352;2023-04-24T06:24:50;0.73;;;0.73;;
25169;SDS011;13129;48.012;10.352;2023-04-24T06:27:16;0.80;;;0.80;;
25169;SDS011;13129;48.012;10.352;2023-04-24T06:29:42;0.60;;;0.60;;
25169;SDS011;13129;48.012;10.352;2023-04-24T06:32:07;1.02;;;0.73;;
25169;SDS011;13129;48.012;10.352;2023-04-24T06:34:33;0.93;;;0.90;;
25169;SDS011;13129;48.012;10.352;2023-04-24T06:36:59;0.85;;;0.80;;
25169;SDS011;13129;48.012;10.352;2023-04-24T06:39:25;1.20;;;1.10;;
25169;SDS011;13129;48.012;10.352;2023-04-24T06:41:51;0.85;;;0.85;;
25169;SDS011;13129;48.012;10.352;2023-04-24T06:44:16;0.70;;;0.70;;
25169;SDS011;13129;48.012;10.352;2023-04-24T06:46:42;1.42;;;0.75;;
25169;SDS011;13129;48.012;10.352;2023-04-24T06:49:08;0.70;;;0.70;;
25169;SDS011;13129;48.012;10.352;2023-04-24T06:51:34;0.60;;;0.60;;
25169;SDS011;13129;48.012;10.352;2023-04-24T06:54:00;1.55;;;0.90;;
25169;SDS011;13129;48.012;10.352;2023-04-24T06:56:26;1.15;;;1.00;;
25169;SDS011;13129;48.012;10.352;2023-04-24T06:58:54;0.70;;;0.70;;
25169;SDS011;13129;48.012;10.352;2023-04-24T07:01:19;0.60;;;0.60;;
25169;SDS011;13129;48.012;10.352;2023-04-24T07:03:45;0.57;;;0.57;;
25169;SDS011;13129;48.012;10.352;2023-04-24T07:06:11;1.33;;;0.70;;
25169;SDS011;13129;48.012;10.352;2023-04-24T07:08:37;1.00;;;0.70;;
25169;SDS011;13129;48.012;10.352;2023-04-24T07:11:03;1.85;;;1.60;;
25169;SDS011;13129;48.012;10.352;2023-04-24T07:13:29;1.00;;;1.00;;
25169;SDS011;13129;48.012;10.352;2023-04-24T07:15:55;2.10;;;1.40;;
25169;SDS011;13129;48.012;10.352;2023-04-24T07:18:21;1.83;;;1.73;;
25169;SDS011;13129;48.012;10.352;2023-04-24T07:20:47;0.70;;;0.70;;
25169;SDS011;13129;48.012;10.352;2023-04-24T07:23:15;1.25;;;1.25;;
25169;SDS011;13129;48.012;10.352;2023-04-24T07:25:41;1.25;;;1.25;;
25169;SDS011;13129;48.012;10.352;2023-04-24T07:28:07;1.60;;;1.50;;
25169;SDS011;13129;48.012;10.352;2023-04-24T07:30:32;1.95;;;1.73;;
25169;SDS011;13129;48.012;10.352;2023-04-24T07:32:58;1.70;;;1.60;;
25169;SDS011;13129;48.012;10.352;2023-04-24T07:35:25;2.30;;;2.10;;
25169;SDS011;13129;48.012;10.352;2023-04-24T07:37:52;1.73;;;1.58;;
25169;SDS011;13129;48.012;10.352;2023-04-24T07:40:18;1.80;;;1.70;;
25169;SDS011;13129;48.012;10.352;2023-04-24T07:42:44;1.80;;;1.70;;
25169;SDS011;13129;48.012;10.352;2023-04-24T07:45:10;1.90;;;1.80;;
25169;SDS011;13129;48.012;10.352;2023-04-24T07:47:36;2.60;;;2.33;;
25169;SDS011;13129;48.012;10.352;2023-04-24T07:50:03;3.90;;;2.75;;
25169;SDS011;13129;48.012;10.352;2023-04-24T07:52:29;5.43;;;3.60;;
25169;SDS011;13129;48.012;10.352;2023-04-24T07:54:55;3.60;;;2.88;;
25169;SDS011;13129;48.012;10.352;2023-04-24T07:57:24;2.08;;;1.98;;
25169;SDS011;13129;48.012;10.352;2023-04-24T07:59:55;2.97;;;1.73;;
25169;SDS011;13129;48.012;10.352;2023-04-24T08:04:51;1.95;;;1.80;;
25169;SDS011;13129;48.012;10.352;2023-04-24T08:07:19;1.70;;;1.60;;
25169;SDS011;13129;48.012;10.352;2023-04-24T08:09:45;2.63;;;2.20;;
25169;SDS011;13129;48.012;10.352;2023-04-24T08:12:11;2.83;;;2.63;;
25169;SDS011;13129;48.012;10.352;2023-04-24T08:14:36;2.20;;;2.10;;
25169;SDS011;13129;48.012;10.352;2023-04-24T08:17:02;3.15;;;2.95;;
25169;SDS011;13129;48.012;10.352;2023-04-24T08:19:28;4.32;;;3.92;;
25169;SDS011;13129;48.012;10.352;2023-04-24T08:21:54;4.20;;;3.20;;
25169;SDS011;13129;48.012;10.352;2023-04-24T08:24:20;2.42;;;2.22;;
25169;SDS011;13129;48.012;10.352;2023-04-24T08:26:45;3.72;;;2.53;;
25169;SDS011;13129;48.012;10.352;2023-04-24T08:29:11;2.13;;;1.92;;
25169;SDS011;13129;48.012;10.352;2023-04-24T08:31:36;2.58;;;1.90;;
25169;SDS011;13129;48.012;10.352;2023-04-24T08:34:02;3.97;;;3.33;;
25169;SDS011;13129;48.012;10.352;2023-04-24T08:36:28;3.33;;;1.73;;
25169;SDS011;13129;48.012;10.352;2023-04-24T08:38:53;1.73;;;1.63;;
25169;SDS011;13129;48.012;10.352;2023-04-24T08:41:19;1.95;;;1.50;;
25169;SDS011;13129;48.012;10.352;2023-04-24T08:43:46;2.03;;;1.50;;
25169;SDS011;13129;48.012;10.352;2023-04-24T08:46:12;2.08;;;1.73;;
25169;SDS011;13129;48.012;10.352;2023-04-24T08:48:39;2.20;;;1.67;;
25169;SDS011;13129;48.012;10.352;2023-04-24T08:51:08;1.50;;;1.40;;
25169;SDS011;13129;48.012;10.352;2023-04-24T08:53:35;2.17;;;1.98;;
25169;SDS011;13129;48.012;10.352;2023-04-24T08:56:01;1.58;;;1.48;;
25169;SDS011;13129;48.012;10.352;2023-04-24T08:58:28;1.10;;;1.10;;
25169;SDS011;13129;48.012;10.352;2023-04-24T09:00:54;1.70;;;1.60;;
25169;SDS011;13129;48.012;10.352;2023-04-24T09:03:20;1.67;;;1.58;;
25169;SDS011;13129;48.012;10.352;2023-04-24T09:05:47;3.60;;;1.40;;
25169;SDS011;13129;48.012;10.352;2023-04-24T09:08:14;2.50;;;1.70;;
25169;SDS011;13129;48.012;10.352;2023-04-24T09:10:42;1.38;;;1.27;;
25169;SDS011;13129;48.012;10.352;2023-04-24T09:13:08;1.55;;;1.45;;
25169;SDS011;13129;48.012;10.352;2023-04-24T09:15:35;1.80;;;1.20;;
25169;SDS011;13129;48.012;10.352;2023-04-24T09:18:01;2.03;;;1.70;;
25169;SDS011;13129;48.012;10.352;2023-04-24T09:20:27;1.50;;;1.40;;
25169;SDS011;13129;48.012;10.352;2023-04-24T09:22:53;1.67;;;1.58;;
25169;SDS011;13129;48.012;10.352;2023-04-24T09:25:21;0.90;;;0.90;;
25169;SDS011;13129;48.012;10.352;2023-04-24T09:27:47;0.60;;;0.60;;
25169;SDS011;13129;48.012;10.352;2023-04-24T09:30:12;0.63;;;0.63;;
25169;SDS011;13129;48.012;10.352;2023-04-24T09:32:39;0.80;;;0.80;;
25169;SDS011;13129;48.012;10.352;2023-04-24T09:37:34;2.75;;;1.45;;
25169;SDS011;13129;48.012;10.352;2023-04-24T09:40:08;1.13;;;1.02;;
25169;SDS011;13129;48.012;10.352;2023-04-24T09:42:38;3.20;;;1.10;;
25169;SDS011;13129;48.012;10.352;2023-04-24T09:45:07;3.17;;;1.75;;
25169;SDS011;13129;48.012;10.352;2023-04-24T09:47:37;3.22;;;2.00;;
25169;SDS011;13129;48.012;10.352;2023-04-24T09:50:14;2.22;;;1.35;;
25169;SDS011;13129;48.012;10.352;2023-04-24T09:52:44;2.08;;;1.70;;
25169;SDS011;13129;48.012;10.352;2023-04-24T09:55:21;1.17;;;1.08;;
25169;SDS011;13129;48.012;10.352;2023-04-24T09:57:47;1.88;;;1.35;;
25169;SDS011;13129;48.012;10.352;2023-04-24T10:00:29;2.15;;;1.48;;
25169;SDS011;13129;48.012;10.352;2023-04-24T10:03:00;2.10;;;1.42;;
25169;SDS011;13129;48.012;10.352;2023-04-24T10:05:28;1.40;;;1.30;;
25169;SDS011;13129;48.012;10.352;2023-04-24T10:10:28;1.08;;;0.98;;
25169;SDS011;13129;48.012;10.352;2023-04-24T10:12:55;1.70;;;1.15;;
25169;SDS011;13129;48.012;10.352;2023-04-24T10:15:21;1.27;;;1.10;;
25169;SDS011;13129;48.012;10.352;2023-04-24T10:17:47;1.52;;;1.40;;
25169;SDS011;13129;48.012;10.352;2023-04-24T10:20:18;1.85;;;1.20;;
25169;SDS011;13129;48.012;10.352;2023-04-24T10:22:46;1.08;;;1.08;;
25169;SDS011;13129;48.012;10.352;2023-04-24T10:25:17;1.85;;;1.58;;
25169;SDS011;13129;48.012;10.352;2023-04-24T10:27:48;2.55;;;1.50;;
25169;SDS011;13129;48.012;10.352;2023-04-24T10:30:14;1.60;;;1.50;;
25169;SDS011;13129;48.012;10.352;2023-04-24T10:32:40;2.15;;;1.40;;
25169;SDS011;13129;48.012;10.352;2023-04-24T10:35:06;1.98;;;1.77;;
25169;SDS011;13129;48.012;10.352;2023-04-24T10:37:41;1.70;;;1.60;;
25169;SDS011;13129;48.012;10.352;2023-04-24T10:40:17;1.58;;;1.35;;
25169;SDS011;13129;48.012;10.352;2023-04-24T10:42:47;1.77;;;1.40;;
25169;SDS011;13129;48.012;10.352;2023-04-24T10:45:17;1.92;;;1.77;;
25169;SDS011;13129;48.012;10.352;2023-04-24T10:47:59;2.75;;;2.10;;
25169;SDS011;13129;48.012;10.352;2023-04-24T10:50:26;1.50;;;1.40;;
25169;SDS011;13129;48.012;10.352;2023-04-24T10:52:53;1.75;;;1.40;;
25169;SDS011;13129;48.012;10.352;2023-04-24T10:55:39;1.77;;;1.40;;
25169;SDS011;13129;48.012;10.352;2023-04-24T10:58:08;1.80;;;1.33;;
25169;SDS011;13129;48.012;10.352;2023-04-24T11:00:36;1.65;;;1.50;;
25169;SDS011;13129;48.012;10.352;2023-04-24T11:03:04;1.80;;;1.70;;
25169;SDS011;13129;48.012;10.352;2023-04-24T11:05:50;2.47;;;1.77;;
25169;SDS011;13129;48.012;10.352;2023-04-24T11:08:26;1.48;;;1.38;;
25169;SDS011;13129;48.012;10.352;2023-04-24T11:22:16;2.15;;;1.98;;
25169;SDS011;13129;48.012;10.352;2023-04-24T11:29:38;1.10;;;1.00;;
25169;SDS011;13129;48.012;10.352;2023-04-24T11:32:14;1.92;;;1.48;;
25169;SDS011;13129;48.012;10.352;2023-04-24T11:34:50;1.75;;;1.50;;
25169;SDS011;13129;48.012;10.352;2023-04-24T11:37:17;2.70;;;1.70;;
25169;SDS011;13129;48.012;10.352;2023-04-24T11:39:43;2.28;;;1.50;;
25169;SDS011;13129;48.012;10.352;2023-04-24T11:42:09;1.90;;;1.80;;
25169;SDS011;13129;48.012;10.352;2023-04-24T11:44:35;1.60;;;1.50;;
25169;SDS011;13129;48.012;10.352;2023-04-24T11:47:06;1.60;;;1.50;;
25169;SDS011;13129;48.012;10.352;2023-04-24T11:49:33;1.50;;;1.40;;
25169;SDS011;13129;48.012;10.352;2023-04-24T11:52:02;1.70;;;1.60;;
25169;SDS011;13129;48.012;10.352;2023-04-24T11:54:27;1.98;;;1.50;;
25169;SDS011;13129;48.012;10.352;2023-04-24T11:56:53;1.92;;;1.25;;
25169;SDS011;13129;48.012;10.352;2023-04-24T11:59:21;1.50;;;1.40;;
25169;SDS011;13129;48.012;10.352;2023-04-24T12:01:46;2.42;;;1.20;;
25169;SDS011;13129;48.012;10.352;2023-04-24T12:04:14;1.70;;;1.60;;
25169;SDS011;13129;48.012;10.352;2023-04-24T12:06:58;4.50;;;3.25;;
25169;SDS011;13129;48.012;10.352;2023-04-24T12:09:25;6.70;;;5.20;;
25169;SDS011;13129;48.012;10.352;2023-04-24T12:11:54;14.32;;;9.90;;
25169;SDS011;13129;48.012;10.352;2023-04-24T12:14:23;8.23;;;6.90;;
25169;SDS011;13129;48.012;10.352;2023-04-24T12:16:49;2.30;;;1.70;;
25169;SDS011;13129;48.012;10.352;2023-04-24T12:19:22;2.65;;;2.20;;
25169;SDS011;13129;48.012;10.352;2023-04-24T12:21:59;2.95;;;1.92;;
25169;SDS011;13129;48.012;10.352;2023-04-24T12:24:30;2.85;;;1.85;;
25169;SDS011;13129;48.012;10.352;2023-04-24T12:26:56;2.45;;;1.60;;
25169;SDS011;13129;48.012;10.352;2023-04-24T12:29:23;2.05;;;1.50;;
25169;SDS011;13129;48.012;10.352;2023-04-24T12:31:49;1.50;;;1.40;;
25169;SDS011;13129;48.012;10.352;2023-04-24T12:34:23;3.42;;;1.88;;
25169;SDS011;13129;48.012;10.352;2023-04-24T12:36:50;4.47;;;2.10;;
25169;SDS011;13129;48.012;10.352;2023-04-24T12:39:19;2.55;;;2.35;;
25169;SDS011;13129;48.012;10.352;2023-04-24T12:41:55;1.60;;;1.50;;
25169;SDS011;13129;48.012;10.352;2023-04-24T12:44:30;2.38;;;1.63;;
25169;SDS011;13129;48.012;10.352;2023-04-24T12:46:59;2.13;;;1.92;;
25169;SDS011;13129;48.012;10.352;2023-04-24T12:49:25;3.10;;;2.80;;
25169;SDS011;13129;48.012;10.352;2023-04-24T12:51:51;1.95;;;1.65;;
25169;SDS011;13129;48.012;10.352;2023-04-24T12:54:16;1.48;;;1.25;;
25169;SDS011;13129;48.012;10.352;2023-04-24T12:56:42;2.25;;;1.38;;
25169;SDS011;13129;48.012;10.352;2023-04-24T12:59:08;3.08;;;2.33;;
25169;SDS011;13129;48.012;10.352;2023-04-24T13:01:33;2.67;;;2.42;;
25169;SDS011;13129;48.012;10.352;2023-04-24T13:03:59;3.05;;;2.40;;
25169;SDS011;13129;48.012;10.352;2023-04-24T13:06:25;2.58;;;1.80;;
25169;SDS011;13129;48.012;10.352;2023-04-24T13:08:51;6.13;;;2.15;;
25169;SDS011;13129;48.012;10.352;2023-04-24T13:11:17;1.80;;;1.70;;
25169;SDS011;13129;48.012;10.352;2023-04-24T13:13:43;2.15;;;1.83;;
25169;SDS011;13129;48.012;10.352;2023-04-24T13:16:08;1.80;;;1.55;;
25169;SDS011;13129;48.012;10.352;2023-04-24T13:18:34;2.35;;;1.70;;
25169;SDS011;13129;48.012;10.352;2023-04-24T13:21:00;1.80;;;1.35;;
25169;SDS011;13129;48.012;10.352;2023-04-24T13:23:25;2.15;;;1.65;;
25169;SDS011;13129;48.012;10.352;2023-04-24T13:25:51;1.88;;;1.77;;
25169;SDS011;13129;48.012;10.352;2023-04-24T13:28:17;2.25;;;2.00;;
25169;SDS011;13129;48.012;10.352;2023-04-24T13:30:43;1.70;;;1.60;;
25169;SDS011;13129;48.012;10.352;2023-04-24T13:33:08;1.85;;;1.75;;
25169;SDS011;13129;48.012;10.352;2023-04-24T13:35:34;2.20;;;1.90;;
25169;SDS011;13129;48.012;10.352;2023-04-24T13:38:00;2.10;;;1.70;;
25169;SDS011;13129;48.012;10.352;2023-04-24T13:40:26;2.20;;;1.75;;
25169;SDS011;13129;48.012;10.352;2023-04-24T13:42:52;2.00;;;1.73;;
25169;SDS011;13129;48.012;10.352;2023-04-24T13:45:19;2.03;;;1.83;;
25169;SDS011;13129;48.012;10.352;2023-04-24T13:47:45;1.58;;;1.48;;
25169;SDS011;13129;48.012;10.352;2023-04-24T13:50:11;1.58;;;1.40;;
25169;SDS011;13129;48.012;10.352;2023-04-24T13:52:37;4.05;;;1.45;;
25169;SDS011;13129;48.012;10.352;2023-04-24T13:55:02;2.75;;;1.65;;
25169;SDS011;13129;48.012;10.352;2023-04-24T13:57:28;1.52;;;1.42;;
25169;SDS011;13129;48.012;10.352;2023-04-24T13:59:55;1.60;;;1.50;;
25169;SDS011;13129;48.012;10.352;2023-04-24T14:02:26;3.65;;;1.50;;
25169;SDS011;13129;48.012;10.352;2023-04-24T14:04:52;1.95;;;1.60;;
25169;SDS011;13129;48.012;10.352;2023-04-24T14:07:17;2.33;;;1.60;;
25169;SDS011;13129;48.012;10.352;2023-04-24T14:09:43;1.80;;;1.70;;
25169;SDS011;13129;48.012;10.352;2023-04-24T14:12:08;2.50;;;1.60;;
25169;SDS011;13129;48.012;10.352;2023-04-24T14:14:34;1.70;;;1.60;;
25169;SDS011;13129;48.012;10.352;2023-04-24T14:17:00;2.58;;;1.60;;
25169;SDS011;13129;48.012;10.352;2023-04-24T14:19:25;1.45;;;1.35;;
25169;SDS011;13129;48.012;10.352;2023-04-24T14:21:51;2.67;;;1.50;;
25169;SDS011;13129;48.012;10.352;2023-04-24T14:24:17;1.48;;;1.38;;
25169;SDS011;13129;48.012;10.352;2023-04-24T14:26:43;1.63;;;1.30;;
25169;SDS011;13129;48.012;10.352;2023-04-24T14:29:09;2.10;;;1.40;;
25169;SDS011;13129;48.012;10.352;2023-04-24T14:31:35;2.05;;;1.50;;
25169;SDS011;13129;48.012;10.352;2023-04-24T14:34:00;1.35;;;1.25;;
25169;SDS011;13129;48.012;10.352;2023-04-24T14:36:26;3.05;;;2.15;;
25169;SDS011;13129;48.012;10.352;2023-04-24T14:38:51;2.10;;;1.45;;
25169;SDS011;13129;48.012;10.352;2023-04-24T14:41:17;1.35;;;1.30;;
25169;SDS011;13129;48.012;10.352;2023-04-24T14:43:43;1.40;;;1.30;;
25169;SDS011;13129;48.012;10.352;2023-04-24T14:46:08;2.15;;;1.60;;
25169;SDS011;13129;48.012;10.352;2023-04-24T14:48:34;2.30;;;1.20;;
25169;SDS011;13129;48.012;10.352;2023-04-24T14:51:00;1.40;;;1.30;;
25169;SDS011;13129;48.012;10.352;2023-04-24T14:53:25;1.58;;;1.25;;
25169;SDS011;13129;48.012;10.352;2023-04-24T14:55:51;1.40;;;1.30;;
25169;SDS011;13129;48.012;10.352;2023-04-24T14:58:17;1.40;;;1.30;;
25169;SDS011;13129;48.012;10.352;2023-04-24T15:00:42;2.35;;;1.55;;
25169;SDS011;13129;48.012;10.352;2023-04-24T15:03:08;1.27;;;1.17;;
25169;SDS011;13129;48.012;10.352;2023-04-24T15:05:34;1.55;;;1.33;;
25169;SDS011;13129;48.012;10.352;2023-04-24T15:08:00;2.50;;;1.30;;
25169;SDS011;13129;48.012;10.352;2023-04-24T15:10:26;1.50;;;1.40;;
25169;SDS011;13129;48.012;10.352;2023-04-24T15:12:51;1.77;;;1.20;;
25169;SDS011;13129;48.012;10.352;2023-04-24T15:15:17;3.40;;;1.55;;
25169;SDS011;13129;48.012;10.352;2023-04-24T15:17:43;3.58;;;1.73;;
25169;SDS011;13129;48.012;10.352;2023-04-24T15:20:08;1.45;;;1.38;;
25169;SDS011;13129;48.012;10.352;2023-04-24T15:22:34;1.52;;;1.23;;
25169;SDS011;13129;48.012;10.352;2023-04-24T15:25:00;2.72;;;1.50;;
25169;SDS011;13129;48.012;10.352;2023-04-24T15:27:26;1.75;;;1.65;;
25169;SDS011;13129;48.012;10.352;2023-04-24T15:29:51;2.10;;;1.50;;
25169;SDS011;13129;48.012;10.352;2023-04-24T15:32:18;2.45;;;1.60;;
25169;SDS011;13129;48.012;10.352;2023-04-24T15:34:44;3.70;;;1.90;;
25169;SDS011;13129;48.012;10.352;2023-04-24T15:37:09;1.90;;;1.50;;
25169;SDS011;13129;48.012;10.352;2023-04-24T15:39:36;1.50;;;1.35;;
25169;SDS011;13129;48.012;10.352;2023-04-24T15:42:02;2.63;;;2.15;;
25169;SDS011;13129;48.012;10.352;2023-04-24T15:44:27;2.03;;;1.83;;
25169;SDS011;13129;48.012;10.352;2023-04-24T15:46:53;1.98;;;1.60;;
25169;SDS011;13129;48.012;10.352;2023-04-24T15:49:20;1.65;;;1.55;;
25169;SDS011;13129;48.012;10.352;2023-04-24T15:51:45;1.60;;;1.48;;
25169;SDS011;13129;48.012;10.352;2023-04-24T15:54:11;2.20;;;1.75;;
25169;SDS011;13129;48.012;10.352;2023-04-24T15:56:37;2.08;;;1.75;;
25169;SDS011;13129;48.012;10.352;2023-04-24T15:59:04;1.80;;;1.70;;
25169;SDS011;13129;48.012;10.352;2023-04-24T16:01:30;3.65;;;1.50;;
25169;SDS011;13129;48.012;10.352;2023-04-24T16:03:56;1.77;;;1.67;;
25169;SDS011;13129;48.012;10.352;2023-04-24T16:06:22;5.18;;;1.60;;
25169;SDS011;13129;48.012;10.352;2023-04-24T16:08:49;1.73;;;1.60;;
25169;SDS011;13129;48.012;10.352;2023-04-24T16:11:15;1.73;;;1.63;;
25169;SDS011;13129;48.012;10.352;2023-04-24T16:13:41;3.05;;;1.67;;
25169;SDS011;13129;48.012;10.352;2023-04-24T16:16:07;3.65;;;1.48;;
25169;SDS011;13129;48.012;10.352;2023-04-24T16:18:32;4.53;;;1.98;;
25169;SDS011;13129;48.012;10.352;2023-04-24T16:20:58;2.13;;;1.50;;
25169;SDS011;13129;48.012;10.352;2023-04-24T16:23:24;3.47;;;1.88;;
25169;SDS011;13129;48.012;10.352;2023-04-24T16:25:50;2.85;;;1.50;;
25169;SDS011;13129;48.012;10.352;2023-04-24T16:28:17;2.20;;;2.00;;
25169;SDS011;13129;48.012;10.352;2023-04-24T16:30:43;1.70;;;1.60;;
25169;SDS011;13129;48.012;10.352;2023-04-24T16:33:09;1.50;;;1.40;;
25169;SDS011;13129;48.012;10.352;2023-04-24T16:35:35;1.65;;;1.55;;
25169;SDS011;13129;48.012;10.352;2023-04-24T16:38:03;2.40;;;1.60;;
25169;SDS011;13129;48.012;10.352;2023-04-24T16:40:29;2.30;;;1.70;;
25169;SDS011;13129;48.012;10.352;2023-04-24T16:42:54;1.75;;;1.65;;
25169;SDS011;13129;48.012;10.352;2023-04-24T16:45:20;1.75;;;1.60;;
25169;SDS011;13129;48.012;10.352;2023-04-24T16:47:46;1.60;;;1.50;;
25169;SDS011;13129;48.012;10.352;2023-04-24T16:50:11;1.75;;;1.65;;
25169;SDS011;13129;48.012;10.352;2023-04-24T16:52:37;1.88;;;1.52;;
25169;SDS011;13129;48.012;10.352;2023-04-24T16:55:03;1.50;;;1.40;;
25169;SDS011;13129;48.012;10.352;2023-04-24T16:57:29;1.58;;;1.48;;
25169;SDS011;13129;48.012;10.352;2023-04-24T16:59:54;3.20;;;1.58;;
25169;SDS011;13129;48.012;10.352;2023-04-24T17:02:20;1.83;;;1.73;;
25169;SDS011;13129;48.012;10.352;2023-04-24T17:04:45;1.85;;;1.75;;
25169;SDS011;13129;48.012;10.352;2023-04-24T17:07:12;1.75;;;1.65;;
25169;SDS011;13129;48.012;10.352;2023-04-24T17:09:38;1.60;;;1.50;;
25169;SDS011;13129;48.012;10.352;2023-04-24T17:12:04;1.92;;;1.75;;
25169;SDS011;13129;48.012;10.352;2023-04-24T17:14:29;3.03;;;1.50;;
25169;SDS011;13129;48.012;10.352;2023-04-24T17:16:55;2.13;;;1.80;;
25169;SDS011;13129;48.012;10.352;2023-04-24T17:19:21;1.60;;;1.48;;
25169;SDS011;13129;48.012;10.352;2023-04-24T17:21:46;2.88;;;1.80;;
25169;SDS011;13129;48.012;10.352;2023-04-24T17:24:12;2.72;;;1.80;;
25169;SDS011;13129;48.012;10.352;2023-04-24T17:26:37;2.10;;;1.88;;
25169;SDS011;13129;48.012;10.352;2023-04-24T17:29:03;2.33;;;1.90;;
25169;SDS011;13129;48.012;10.352;2023-04-24T17:31:30;2.17;;;1.73;;
25169;SDS011;13129;48.012;10.352;2023-04-24T17:33:56;3.13;;;1.98;;
25169;SDS011;13129;48.012;10.352;2023-04-24T17:36:23;3.45;;;1.90;;
25169;SDS011;13129;48.012;10.352;2023-04-24T17:38:50;2.88;;;2.13;;
25169;SDS011;13129;48.012;10.352;2023-04-24T17:41:15;2.55;;;2.35;;
25169;SDS011;13129;48.012;10.352;2023-04-24T17:43:41;3.60;;;3.30;;
25169;SDS011;13129;48.012;10.352;2023-04-24T17:46:09;4.80;;;4.32;;
25169;SDS011;13129;48.012;10.352;2023-04-24T17:48:35;4.53;;;4.13;;
25169;SDS011;13129;48.012;10.352;2023-04-24T17:51:01;3.70;;;3.30;;
25169;SDS011;13129;48.012;10.352;2023-04-24T17:53:26;4.80;;;3.90;;
25169;SDS011;13129;48.012;10.352;2023-04-24T17:55:52;6.90;;;3.70;;
25169;SDS011;13129;48.012;10.352;2023-04-24T17:58:25;3.25;;;2.83;;
25169;SDS011;13129;48.012;10.352;2023-04-24T18:00:51;3.00;;;2.80;;
25169;SDS011;13129;48.012;10.352;2023-04-24T18:03:17;4.55;;;2.75;;
25169;SDS011;13129;48.012;10.352;2023-04-24T18:05:43;3.28;;;3.03;;
25169;SDS011;13129;48.012;10.352;2023-04-24T18:08:08;2.67;;;2.47;;
25169;SDS011;13129;48.012;10.352;2023-04-24T18:10:34;3.22;;;2.92;;
25169;SDS011;13129;48.012;10.352;2023-04-24T18:13:03;2.92;;;2.60;;
25169;SDS011;13129;48.012;10.352;2023-04-24T18:15:29;4.63;;;3.00;;
25169;SDS011;13129;48.012;10.352;2023-04-24T18:17:55;5.00;;;3.45;;
25169;SDS011;13129;48.012;10.352;2023-04-24T18:20:21;5.20;;;3.05;;
25169;SDS011;13129;48.012;10.352;2023-04-24T18:22:47;3.45;;;3.15;;
25169;SDS011;13129;48.012;10.352;2023-04-24T18:25:13;3.30;;;3.08;;
25169;SDS011;13129;48.012;10.352;2023-04-24T18:27:39;4.15;;;3.03;;
25169;SDS011;13129;48.012;10.352;2023-04-24T18:30:06;3.90;;;3.10;;